sensor_id;sensor_type;location;lat;lon;timestamp;P1;durP1;ratioP1;P2;durP2;ratioP2
51800;SDS011;37855;53.204;6.568;2023-09-12T00:00:38;28.63;;;19.57;;
51800;SDS011;37855;53.204;6.568;2023-09-12T00:03:07;25.25;;;18.90;;
51800;SDS011;37855;53.204;6.568;2023-09-12T00:05:32;34.38;;;23.60;;
51800;SDS011;37855;53.204;6.568;2023-09-12T00:07:58;34.90;;;23.57;;
51800;SDS011;37855;53.204;6.568;2023-09-12T00:10:24;34.83;;;23.42;;
51800;SDS011;37855;53.204;6.568;2023-09-12T00:12:50;30.03;;;19.93;;
51800;SDS011;37855;53.204;6.568;2023-09-12T00:15:16;29.35;;;20.55;;
51800;SDS011;37855;53.204;6.568;2023-09-12T00:17:41;30.10;;;19.80;;
51800;SDS011;37855;53.204;6.568;2023-09-12T00:20:07;31.75;;;21.65;;
51800;SDS011;37855;53.204;6.568;2023-09-12T00:22:33;24.83;;;16.48;;
51800;SDS011;37855;53.204;6.568;2023-09-12T00:24:59;20.33;;;13.67;;
51800;SDS011;37855;53.204;6.568;2023-09-12T00:27:24;24.08;;;14.93;;
51800;SDS011;37855;53.204;6.568;2023-09-12T00:29:50;19.87;;;12.23;;
51800;SDS011;37855;53.204;6.568;2023-09-12T00:32:16;23.33;;;13.88;;
51800;SDS011;37855;53.204;6.568;2023-09-12T00:34:42;21.73;;;13.17;;
51800;SDS011;37855;53.204;6.568;2023-09-12T00:37:09;17.90;;;12.40;;
51800;SDS011;37855;53.204;6.568;2023-09-12T00:39:35;19.80;;;13.82;;
51800;SDS011;37855;53.204;6.568;2023-09-12T00:42:00;23.03;;;15.63;;
51800;SDS011;37855;53.204;6.568;2023-09-12T00:44:35;24.15;;;16.15;;
51800;SDS011;37855;53.204;6.568;2023-09-12T00:47:01;19.57;;;13.30;;
51800;SDS011;37855;53.204;6.568;2023-09-12T00:49:31;18.73;;;12.10;;
51800;SDS011;37855;53.204;6.568;2023-09-12T00:51:57;17.58;;;12.38;;
51800;SDS011;37855;53.204;6.568;2023-09-12T00:54:24;18.90;;;11.23;;
51800;SDS011;37855;53.204;6.568;2023-09-12T00:56:50;21.03;;;13.27;;
51800;SDS011;37855;53.204;6.568;2023-09-12T00:59:16;20.23;;;13.33;;
51800;SDS011;37855;53.204;6.568;2023-09-12T01:01:46;23.23;;;16.50;;
51800;SDS011;37855;53.204;6.568;2023-09-12T01:04:15;18.15;;;12.80;;
51800;SDS011;37855;53.204;6.568;2023-09-12T01:06:43;17.67;;;12.53;;
51800;SDS011;37855;53.204;6.568;2023-09-12T01:09:09;20.38;;;12.77;;
51800;SDS011;37855;53.204;6.568;2023-09-12T01:11:34;18.60;;;12.18;;
51800;SDS011;37855;53.204;6.568;2023-09-12T01:14:00;22.37;;;15.27;;
51800;SDS011;37855;53.204;6.568;2023-09-12T01:16:27;23.55;;;14.95;;
51800;SDS011;37855;53.204;6.568;2023-09-12T01:18:52;18.80;;;12.80;;
51800;SDS011;37855;53.204;6.568;2023-09-12T01:21:26;20.27;;;14.10;;
51800;SDS011;37855;53.204;6.568;2023-09-12T01:26:41;21.48;;;16.00;;
51800;SDS011;37855;53.204;6.568;2023-09-12T01:29:24;20.02;;;14.50;;
51800;SDS011;37855;53.204;6.568;2023-09-12T01:31:54;18.38;;;13.73;;
51800;SDS011;37855;53.204;6.568;2023-09-12T01:34:23;19.90;;;13.57;;
51800;SDS011;37855;53.204;6.568;2023-09-12T01:36:50;25.85;;;16.52;;
51800;SDS011;37855;53.204;6.568;2023-09-12T01:39:16;25.15;;;16.52;;
51800;SDS011;37855;53.204;6.568;2023-09-12T01:41:45;23.23;;;16.40;;
51800;SDS011;37855;53.204;6.568;2023-09-12T01:44:13;17.58;;;13.30;;
51800;SDS011;37855;53.204;6.568;2023-09-12T01:46:39;23.63;;;16.38;;
51800;SDS011;37855;53.204;6.568;2023-09-12T01:49:07;20.63;;;14.43;;
51800;SDS011;37855;53.204;6.568;2023-09-12T01:51:36;23.65;;;17.25;;
51800;SDS011;37855;53.204;6.568;2023-09-12T01:54:03;23.57;;;16.27;;
51800;SDS011;37855;53.204;6.568;2023-09-12T01:56:31;19.75;;;13.50;;
51800;SDS011;37855;53.204;6.568;2023-09-12T01:59:03;25.08;;;16.85;;
51800;SDS011;37855;53.204;6.568;2023-09-12T02:01:29;19.90;;;14.35;;
51800;SDS011;37855;53.204;6.568;2023-09-12T02:03:54;28.17;;;18.60;;
51800;SDS011;37855;53.204;6.568;2023-09-12T02:06:20;22.93;;;16.30;;
51800;SDS011;37855;53.204;6.568;2023-09-12T02:08:46;21.95;;;15.30;;
51800;SDS011;37855;53.204;6.568;2023-09-12T02:11:13;21.77;;;13.93;;
51800;SDS011;37855;53.204;6.568;2023-09-12T02:13:38;21.30;;;14.17;;
51800;SDS011;37855;53.204;6.568;2023-09-12T02:16:04;19.35;;;13.80;;
51800;SDS011;37855;53.204;6.568;2023-09-12T02:18:30;20.77;;;15.17;;
51800;SDS011;37855;53.204;6.568;2023-09-12T02:21:00;19.88;;;14.15;;
51800;SDS011;37855;53.204;6.568;2023-09-12T02:23:26;20.65;;;14.82;;
51800;SDS011;37855;53.204;6.568;2023-09-12T02:25:51;22.73;;;15.90;;
51800;SDS011;37855;53.204;6.568;2023-09-12T02:28:17;25.92;;;17.67;;
51800;SDS011;37855;53.204;6.568;2023-09-12T02:30:43;24.77;;;16.67;;
51800;SDS011;37855;53.204;6.568;2023-09-12T02:33:08;23.35;;;15.15;;
51800;SDS011;37855;53.204;6.568;2023-09-12T02:35:34;26.23;;;19.03;;
51800;SDS011;37855;53.204;6.568;2023-09-12T02:38:01;24.90;;;17.00;;
51800;SDS011;37855;53.204;6.568;2023-09-12T02:40:28;22.52;;;15.57;;
51800;SDS011;37855;53.204;6.568;2023-09-12T02:42:53;24.60;;;16.63;;
51800;SDS011;37855;53.204;6.568;2023-09-12T02:45:19;22.23;;;15.23;;
51800;SDS011;37855;53.204;6.568;2023-09-12T02:47:45;17.93;;;14.10;;
51800;SDS011;37855;53.204;6.568;2023-09-12T02:50:11;22.17;;;14.60;;
51800;SDS011;37855;53.204;6.568;2023-09-12T02:52:37;24.45;;;16.88;;
51800;SDS011;37855;53.204;6.568;2023-09-12T02:55:04;23.08;;;15.90;;
51800;SDS011;37855;53.204;6.568;2023-09-12T02:57:30;19.47;;;15.13;;
51800;SDS011;37855;53.204;6.568;2023-09-12T02:59:56;24.40;;;18.00;;
51800;SDS011;37855;53.204;6.568;2023-09-12T03:02:21;20.67;;;14.43;;
51800;SDS011;37855;53.204;6.568;2023-09-12T03:04:47;20.00;;;14.17;;
51800;SDS011;37855;53.204;6.568;2023-09-12T03:07:13;26.63;;;15.48;;
51800;SDS011;37855;53.204;6.568;2023-09-12T03:09:39;23.93;;;16.37;;
51800;SDS011;37855;53.204;6.568;2023-09-12T03:12:09;24.83;;;17.77;;
51800;SDS011;37855;53.204;6.568;2023-09-12T03:14:36;25.33;;;17.50;;
51800;SDS011;37855;53.204;6.568;2023-09-12T03:17:02;30.47;;;19.43;;
51800;SDS011;37855;53.204;6.568;2023-09-12T03:19:29;24.10;;;17.20;;
51800;SDS011;37855;53.204;6.568;2023-09-12T03:21:55;27.48;;;18.92;;
51800;SDS011;37855;53.204;6.568;2023-09-12T03:24:21;21.87;;;14.40;;
51800;SDS011;37855;53.204;6.568;2023-09-12T03:26:49;20.75;;;14.48;;
51800;SDS011;37855;53.204;6.568;2023-09-12T03:29:18;19.20;;;13.23;;
51800;SDS011;37855;53.204;6.568;2023-09-12T03:31:47;22.33;;;15.45;;
51800;SDS011;37855;53.204;6.568;2023-09-12T03:34:13;27.27;;;17.90;;
51800;SDS011;37855;53.204;6.568;2023-09-12T03:36:40;22.15;;;14.25;;
51800;SDS011;37855;53.204;6.568;2023-09-12T03:39:06;21.23;;;14.45;;
51800;SDS011;37855;53.204;6.568;2023-09-12T03:41:33;20.87;;;13.27;;
51800;SDS011;37855;53.204;6.568;2023-09-12T03:44:00;19.67;;;13.80;;
51800;SDS011;37855;53.204;6.568;2023-09-12T03:46:25;20.67;;;14.38;;
51800;SDS011;37855;53.204;6.568;2023-09-12T03:48:51;22.03;;;13.37;;
51800;SDS011;37855;53.204;6.568;2023-09-12T03:51:20;18.33;;;12.77;;
51800;SDS011;37855;53.204;6.568;2023-09-12T03:53:46;18.92;;;12.77;;
51800;SDS011;37855;53.204;6.568;2023-09-12T03:56:15;20.30;;;13.65;;
51800;SDS011;37855;53.204;6.568;2023-09-12T03:58:41;20.40;;;12.70;;
51800;SDS011;37855;53.204;6.568;2023-09-12T04:01:07;21.50;;;13.33;;
51800;SDS011;37855;53.204;6.568;2023-09-12T04:03:32;23.85;;;15.40;;
51800;SDS011;37855;53.204;6.568;2023-09-12T04:05:59;19.20;;;14.13;;
51800;SDS011;37855;53.204;6.568;2023-09-12T04:08:25;24.48;;;15.25;;
51800;SDS011;37855;53.204;6.568;2023-09-12T04:10:51;24.33;;;15.80;;
51800;SDS011;37855;53.204;6.568;2023-09-12T04:13:18;24.13;;;15.50;;
51800;SDS011;37855;53.204;6.568;2023-09-12T04:15:45;19.03;;;13.30;;
51800;SDS011;37855;53.204;6.568;2023-09-12T04:18:13;22.55;;;14.43;;
51800;SDS011;37855;53.204;6.568;2023-09-12T04:20:38;18.50;;;12.82;;
51800;SDS011;37855;53.204;6.568;2023-09-12T04:23:07;27.33;;;18.03;;
51800;SDS011;37855;53.204;6.568;2023-09-12T04:25:34;21.17;;;13.35;;
51800;SDS011;37855;53.204;6.568;2023-09-12T04:28:00;23.60;;;16.65;;
51800;SDS011;37855;53.204;6.568;2023-09-12T04:30:31;23.05;;;15.48;;
51800;SDS011;37855;53.204;6.568;2023-09-12T04:32:58;22.23;;;14.17;;
51800;SDS011;37855;53.204;6.568;2023-09-12T04:35:27;22.67;;;14.52;;
51800;SDS011;37855;53.204;6.568;2023-09-12T04:37:54;26.15;;;17.02;;
51800;SDS011;37855;53.204;6.568;2023-09-12T04:40:25;22.42;;;15.40;;
51800;SDS011;37855;53.204;6.568;2023-09-12T04:42:51;24.50;;;17.30;;
51800;SDS011;37855;53.204;6.568;2023-09-12T04:45:16;18.13;;;13.37;;
51800;SDS011;37855;53.204;6.568;2023-09-12T04:47:43;19.17;;;12.70;;
51800;SDS011;37855;53.204;6.568;2023-09-12T04:50:09;25.20;;;17.30;;
51800;SDS011;37855;53.204;6.568;2023-09-12T04:52:36;18.27;;;12.70;;
51800;SDS011;37855;53.204;6.568;2023-09-12T04:55:06;18.98;;;13.32;;
51800;SDS011;37855;53.204;6.568;2023-09-12T04:57:33;20.70;;;13.43;;
51800;SDS011;37855;53.204;6.568;2023-09-12T04:59:58;21.50;;;14.80;;
51800;SDS011;37855;53.204;6.568;2023-09-12T05:02:26;23.40;;;16.15;;
51800;SDS011;37855;53.204;6.568;2023-09-12T05:04:52;21.75;;;15.75;;
51800;SDS011;37855;53.204;6.568;2023-09-12T05:07:22;19.70;;;13.27;;
51800;SDS011;37855;53.204;6.568;2023-09-12T05:09:51;20.30;;;14.02;;
51800;SDS011;37855;53.204;6.568;2023-09-12T05:12:20;24.33;;;16.70;;
51800;SDS011;37855;53.204;6.568;2023-09-12T05:14:47;22.15;;;16.45;;
51800;SDS011;37855;53.204;6.568;2023-09-12T05:17:13;25.15;;;16.13;;
51800;SDS011;37855;53.204;6.568;2023-09-12T05:19:51;24.00;;;16.53;;
51800;SDS011;37855;53.204;6.568;2023-09-12T05:22:16;21.73;;;13.95;;
51800;SDS011;37855;53.204;6.568;2023-09-12T05:24:43;26.13;;;16.45;;
51800;SDS011;37855;53.204;6.568;2023-09-12T05:27:11;27.13;;;17.00;;
51800;SDS011;37855;53.204;6.568;2023-09-12T05:29:37;19.90;;;13.77;;
51800;SDS011;37855;53.204;6.568;2023-09-12T05:32:03;22.45;;;16.00;;
51800;SDS011;37855;53.204;6.568;2023-09-12T05:34:29;22.20;;;15.48;;
51800;SDS011;37855;53.204;6.568;2023-09-12T05:36:56;20.17;;;14.47;;
51800;SDS011;37855;53.204;6.568;2023-09-12T05:39:22;26.63;;;15.43;;
51800;SDS011;37855;53.204;6.568;2023-09-12T05:41:49;33.85;;;15.98;;
51800;SDS011;37855;53.204;6.568;2023-09-12T05:44:18;19.97;;;13.20;;
51800;SDS011;37855;53.204;6.568;2023-09-12T05:46:47;21.55;;;14.75;;
51800;SDS011;37855;53.204;6.568;2023-09-12T05:49:16;25.60;;;15.07;;
51800;SDS011;37855;53.204;6.568;2023-09-12T05:51:44;22.92;;;15.38;;
51800;SDS011;37855;53.204;6.568;2023-09-12T05:54:09;24.30;;;16.70;;
51800;SDS011;37855;53.204;6.568;2023-09-12T05:56:36;21.55;;;14.50;;
51800;SDS011;37855;53.204;6.568;2023-09-12T05:59:05;38.53;;;19.40;;
51800;SDS011;37855;53.204;6.568;2023-09-12T06:01:31;29.10;;;19.42;;
51800;SDS011;37855;53.204;6.568;2023-09-12T06:03:57;22.30;;;14.40;;
51800;SDS011;37855;53.204;6.568;2023-09-12T06:06:26;24.98;;;16.40;;
51800;SDS011;37855;53.204;6.568;2023-09-12T06:08:53;26.45;;;16.52;;
51800;SDS011;37855;53.204;6.568;2023-09-12T06:11:19;22.20;;;14.50;;
51800;SDS011;37855;53.204;6.568;2023-09-12T06:13:45;21.67;;;14.90;;
51800;SDS011;37855;53.204;6.568;2023-09-12T06:16:10;23.35;;;15.13;;
51800;SDS011;37855;53.204;6.568;2023-09-12T06:18:36;26.67;;;16.00;;
51800;SDS011;37855;53.204;6.568;2023-09-12T06:21:02;31.88;;;20.00;;
51800;SDS011;37855;53.204;6.568;2023-09-12T06:23:33;31.33;;;17.73;;
51800;SDS011;37855;53.204;6.568;2023-09-12T06:26:00;26.23;;;16.47;;
51800;SDS011;37855;53.204;6.568;2023-09-12T06:28:27;27.90;;;17.13;;
51800;SDS011;37855;53.204;6.568;2023-09-12T06:30:55;33.25;;;19.48;;
51800;SDS011;37855;53.204;6.568;2023-09-12T06:33:22;29.58;;;17.50;;
51800;SDS011;37855;53.204;6.568;2023-09-12T06:35:50;30.65;;;18.05;;
51800;SDS011;37855;53.204;6.568;2023-09-12T06:38:17;33.20;;;19.17;;
51800;SDS011;37855;53.204;6.568;2023-09-12T06:40:46;33.47;;;18.60;;
51800;SDS011;37855;53.204;6.568;2023-09-12T06:43:12;41.10;;;21.58;;
51800;SDS011;37855;53.204;6.568;2023-09-12T06:45:40;33.28;;;19.40;;
51800;SDS011;37855;53.204;6.568;2023-09-12T06:48:06;41.60;;;22.33;;
51800;SDS011;37855;53.204;6.568;2023-09-12T06:50:32;33.20;;;19.37;;
51800;SDS011;37855;53.204;6.568;2023-09-12T06:52:57;37.25;;;20.83;;
51800;SDS011;37855;53.204;6.568;2023-09-12T06:55:51;32.17;;;18.58;;
51800;SDS011;37855;53.204;6.568;2023-09-12T06:58:16;35.30;;;18.77;;
51800;SDS011;37855;53.204;6.568;2023-09-12T07:01:00;32.28;;;18.65;;
51800;SDS011;37855;53.204;6.568;2023-09-12T07:03:48;31.85;;;18.33;;
51800;SDS011;37855;53.204;6.568;2023-09-12T07:06:15;33.47;;;19.30;;
51800;SDS011;37855;53.204;6.568;2023-09-12T07:09:06;34.72;;;20.88;;
51800;SDS011;37855;53.204;6.568;2023-09-12T07:11:48;39.20;;;22.83;;
51800;SDS011;37855;53.204;6.568;2023-09-12T07:14:20;34.90;;;20.23;;
51800;SDS011;37855;53.204;6.568;2023-09-12T07:16:46;34.92;;;19.52;;
51800;SDS011;37855;53.204;6.568;2023-09-12T07:19:14;34.38;;;20.67;;
51800;SDS011;37855;53.204;6.568;2023-09-12T07:21:58;38.50;;;22.48;;
51800;SDS011;37855;53.204;6.568;2023-09-12T07:24:41;32.23;;;18.83;;
51800;SDS011;37855;53.204;6.568;2023-09-12T07:27:12;36.70;;;21.85;;
51800;SDS011;37855;53.204;6.568;2023-09-12T07:32:57;38.03;;;22.25;;
51800;SDS011;37855;53.204;6.568;2023-09-12T07:38:33;35.73;;;19.53;;
51800;SDS011;37855;53.204;6.568;2023-09-12T07:41:00;33.35;;;20.05;;
51800;SDS011;37855;53.204;6.568;2023-09-12T07:43:28;35.33;;;20.35;;
51800;SDS011;37855;53.204;6.568;2023-09-12T07:46:15;34.40;;;21.25;;
51800;SDS011;37855;53.204;6.568;2023-09-12T07:48:44;34.08;;;21.92;;
51800;SDS011;37855;53.204;6.568;2023-09-12T07:51:14;35.57;;;21.37;;
51800;SDS011;37855;53.204;6.568;2023-09-12T07:53:42;30.60;;;20.02;;
51800;SDS011;37855;53.204;6.568;2023-09-12T07:56:09;35.95;;;22.45;;
51800;SDS011;37855;53.204;6.568;2023-09-12T07:58:37;32.88;;;21.65;;
51800;SDS011;37855;53.204;6.568;2023-09-12T08:01:07;29.73;;;19.05;;
51800;SDS011;37855;53.204;6.568;2023-09-12T08:03:35;30.30;;;18.87;;
51800;SDS011;37855;53.204;6.568;2023-09-12T08:06:01;32.72;;;20.77;;
51800;SDS011;37855;53.204;6.568;2023-09-12T08:08:28;28.35;;;18.15;;
51800;SDS011;37855;53.204;6.568;2023-09-12T08:10:54;29.85;;;19.05;;
51800;SDS011;37855;53.204;6.568;2023-09-12T08:13:21;32.17;;;20.00;;
51800;SDS011;37855;53.204;6.568;2023-09-12T08:15:47;28.30;;;17.88;;
51800;SDS011;37855;53.204;6.568;2023-09-12T08:18:13;31.83;;;19.33;;
51800;SDS011;37855;53.204;6.568;2023-09-12T08:20:39;40.97;;;23.97;;
51800;SDS011;37855;53.204;6.568;2023-09-12T08:23:07;30.67;;;19.50;;
51800;SDS011;37855;53.204;6.568;2023-09-12T08:25:33;28.58;;;17.60;;
51800;SDS011;37855;53.204;6.568;2023-09-12T08:27:59;32.37;;;19.47;;
51800;SDS011;37855;53.204;6.568;2023-09-12T08:30:25;30.88;;;19.08;;
51800;SDS011;37855;53.204;6.568;2023-09-12T08:33:06;37.33;;;21.43;;
51800;SDS011;37855;53.204;6.568;2023-09-12T08:35:32;31.55;;;19.25;;
51800;SDS011;37855;53.204;6.568;2023-09-12T08:38:04;31.08;;;19.23;;
51800;SDS011;37855;53.204;6.568;2023-09-12T08:43:22;30.20;;;19.33;;
51800;SDS011;37855;53.204;6.568;2023-09-12T08:45:48;33.33;;;18.57;;
51800;SDS011;37855;53.204;6.568;2023-09-12T08:48:15;33.60;;;18.48;;
51800;SDS011;37855;53.204;6.568;2023-09-12T08:50:46;35.00;;;19.42;;
51800;SDS011;37855;53.204;6.568;2023-09-12T08:53:14;34.90;;;20.08;;
51800;SDS011;37855;53.204;6.568;2023-09-12T08:55:40;30.03;;;19.57;;
51800;SDS011;37855;53.204;6.568;2023-09-12T08:58:06;27.95;;;17.90;;
51800;SDS011;37855;53.204;6.568;2023-09-12T09:00:32;27.65;;;17.10;;
51800;SDS011;37855;53.204;6.568;2023-09-12T09:02:58;28.20;;;17.02;;
51800;SDS011;37855;53.204;6.568;2023-09-12T09:05:24;31.30;;;18.93;;
51800;SDS011;37855;53.204;6.568;2023-09-12T09:07:52;33.05;;;19.55;;
51800;SDS011;37855;53.204;6.568;2023-09-12T09:10:18;39.33;;;22.63;;
51800;SDS011;37855;53.204;6.568;2023-09-12T09:12:47;31.48;;;17.90;;
51800;SDS011;37855;53.204;6.568;2023-09-12T09:15:20;36.75;;;21.13;;
51800;SDS011;37855;53.204;6.568;2023-09-12T09:17:47;34.83;;;21.00;;
51800;SDS011;37855;53.204;6.568;2023-09-12T09:23:00;31.92;;;20.48;;
51800;SDS011;37855;53.204;6.568;2023-09-12T09:25:26;34.95;;;21.63;;
51800;SDS011;37855;53.204;6.568;2023-09-12T09:27:52;27.92;;;18.00;;
51800;SDS011;37855;53.204;6.568;2023-09-12T09:30:23;39.50;;;23.47;;
51800;SDS011;37855;53.204;6.568;2023-09-12T09:33:08;40.05;;;25.20;;
51800;SDS011;37855;53.204;6.568;2023-09-12T09:35:34;35.70;;;21.48;;
51800;SDS011;37855;53.204;6.568;2023-09-12T09:38:01;35.47;;;18.52;;
51800;SDS011;37855;53.204;6.568;2023-09-12T09:40:28;30.02;;;18.63;;
51800;SDS011;37855;53.204;6.568;2023-09-12T09:42:56;35.60;;;19.20;;
51800;SDS011;37855;53.204;6.568;2023-09-12T09:45:24;36.05;;;21.52;;
51800;SDS011;37855;53.204;6.568;2023-09-12T09:47:51;28.50;;;18.90;;
51800;SDS011;37855;53.204;6.568;2023-09-12T09:50:17;33.23;;;19.37;;
51800;SDS011;37855;53.204;6.568;2023-09-12T09:52:43;41.05;;;25.13;;
51800;SDS011;37855;53.204;6.568;2023-09-12T09:55:15;35.13;;;21.35;;
51800;SDS011;37855;53.204;6.568;2023-09-12T09:57:41;37.93;;;23.87;;
51800;SDS011;37855;53.204;6.568;2023-09-12T10:00:07;36.25;;;21.13;;
51800;SDS011;37855;53.204;6.568;2023-09-12T10:02:40;31.80;;;19.15;;
51800;SDS011;37855;53.204;6.568;2023-09-12T10:05:06;33.80;;;20.42;;
51800;SDS011;37855;53.204;6.568;2023-09-12T10:07:37;40.30;;;22.93;;
51800;SDS011;37855;53.204;6.568;2023-09-12T10:10:03;30.00;;;19.02;;
51800;SDS011;37855;53.204;6.568;2023-09-12T10:12:35;33.45;;;18.42;;
51800;SDS011;37855;53.204;6.568;2023-09-12T10:15:07;33.78;;;20.35;;
51800;SDS011;37855;53.204;6.568;2023-09-12T10:17:37;31.65;;;19.83;;
51800;SDS011;37855;53.204;6.568;2023-09-12T10:20:12;39.67;;;22.63;;
51800;SDS011;37855;53.204;6.568;2023-09-12T10:25:19;39.55;;;22.90;;
51800;SDS011;37855;53.204;6.568;2023-09-12T10:27:47;35.47;;;21.73;;
51800;SDS011;37855;53.204;6.568;2023-09-12T10:30:14;37.65;;;23.52;;
51800;SDS011;37855;53.204;6.568;2023-09-12T10:32:40;34.03;;;19.13;;
51800;SDS011;37855;53.204;6.568;2023-09-12T10:35:10;33.70;;;20.88;;
51800;SDS011;37855;53.204;6.568;2023-09-12T10:37:36;33.80;;;20.77;;
51800;SDS011;37855;53.204;6.568;2023-09-12T10:40:07;32.73;;;20.03;;
51800;SDS011;37855;53.204;6.568;2023-09-12T10:42:34;34.22;;;21.30;;
51800;SDS011;37855;53.204;6.568;2023-09-12T10:45:00;29.92;;;18.00;;
51800;SDS011;37855;53.204;6.568;2023-09-12T10:47:29;37.22;;;21.75;;
51800;SDS011;37855;53.204;6.568;2023-09-12T10:49:56;35.67;;;21.05;;
51800;SDS011;37855;53.204;6.568;2023-09-12T10:52:25;28.27;;;17.20;;
51800;SDS011;37855;53.204;6.568;2023-09-12T10:54:52;33.30;;;20.80;;
51800;SDS011;37855;53.204;6.568;2023-09-12T10:57:18;29.48;;;17.88;;
51800;SDS011;37855;53.204;6.568;2023-09-12T11:02:30;38.55;;;24.67;;
51800;SDS011;37855;53.204;6.568;2023-09-12T11:05:01;28.60;;;16.97;;
51800;SDS011;37855;53.204;6.568;2023-09-12T11:10:17;29.80;;;18.17;;
51800;SDS011;37855;53.204;6.568;2023-09-12T11:12:45;36.10;;;22.67;;
51800;SDS011;37855;53.204;6.568;2023-09-12T11:15:12;39.25;;;24.58;;
51800;SDS011;37855;53.204;6.568;2023-09-12T11:17:43;38.73;;;22.53;;
51800;SDS011;37855;53.204;6.568;2023-09-12T11:20:10;34.47;;;19.38;;
51800;SDS011;37855;53.204;6.568;2023-09-12T11:22:44;38.25;;;23.10;;
51800;SDS011;37855;53.204;6.568;2023-09-12T11:25:18;38.05;;;22.83;;
51800;SDS011;37855;53.204;6.568;2023-09-12T11:30:23;32.27;;;18.97;;
51800;SDS011;37855;53.204;6.568;2023-09-12T11:32:56;33.47;;;21.95;;
51800;SDS011;37855;53.204;6.568;2023-09-12T11:35:29;29.27;;;18.67;;
51800;SDS011;37855;53.204;6.568;2023-09-12T11:38:03;36.95;;;22.75;;
51800;SDS011;37855;53.204;6.568;2023-09-12T11:42:58;34.60;;;20.75;;
51800;SDS011;37855;53.204;6.568;2023-09-12T11:45:24;33.85;;;19.95;;
51800;SDS011;37855;53.204;6.568;2023-09-12T11:47:50;33.83;;;18.98;;
51800;SDS011;37855;53.204;6.568;2023-09-12T11:50:34;34.70;;;21.33;;
51800;SDS011;37855;53.204;6.568;2023-09-12T11:53:10;32.40;;;20.70;;
51800;SDS011;37855;53.204;6.568;2023-09-12T11:55:43;28.90;;;17.67;;
51800;SDS011;37855;53.204;6.568;2023-09-12T11:58:14;37.33;;;22.17;;
51800;SDS011;37855;53.204;6.568;2023-09-12T12:00:44;26.23;;;15.50;;
51800;SDS011;37855;53.204;6.568;2023-09-12T12:03:21;30.13;;;18.08;;
51800;SDS011;37855;53.204;6.568;2023-09-12T12:05:48;26.23;;;15.98;;
51800;SDS011;37855;53.204;6.568;2023-09-12T12:08:15;23.63;;;15.80;;
51800;SDS011;37855;53.204;6.568;2023-09-12T12:10:42;33.60;;;18.77;;
51800;SDS011;37855;53.204;6.568;2023-09-12T12:13:11;24.98;;;15.93;;
51800;SDS011;37855;53.204;6.568;2023-09-12T12:15:41;26.63;;;16.20;;
51800;SDS011;37855;53.204;6.568;2023-09-12T12:18:08;29.97;;;17.47;;
51800;SDS011;37855;53.204;6.568;2023-09-12T12:20:34;33.13;;;20.30;;
51800;SDS011;37855;53.204;6.568;2023-09-12T12:23:00;29.65;;;16.90;;
51800;SDS011;37855;53.204;6.568;2023-09-12T12:25:26;26.27;;;18.00;;
51800;SDS011;37855;53.204;6.568;2023-09-12T12:27:56;30.90;;;19.10;;
51800;SDS011;37855;53.204;6.568;2023-09-12T12:30:22;32.80;;;19.60;;
51800;SDS011;37855;53.204;6.568;2023-09-12T12:32:47;32.83;;;18.57;;
51800;SDS011;37855;53.204;6.568;2023-09-12T12:35:20;33.03;;;18.30;;
51800;SDS011;37855;53.204;6.568;2023-09-12T12:37:50;28.00;;;18.30;;
51800;SDS011;37855;53.204;6.568;2023-09-12T12:40:19;25.95;;;16.50;;
51800;SDS011;37855;53.204;6.568;2023-09-12T12:42:45;23.60;;;14.67;;
51800;SDS011;37855;53.204;6.568;2023-09-12T12:45:15;27.33;;;15.88;;
51800;SDS011;37855;53.204;6.568;2023-09-12T12:47:42;28.48;;;14.63;;
51800;SDS011;37855;53.204;6.568;2023-09-12T12:52:39;24.85;;;15.43;;
51800;SDS011;37855;53.204;6.568;2023-09-12T12:55:06;27.93;;;16.53;;
51800;SDS011;37855;53.204;6.568;2023-09-12T12:57:37;33.17;;;19.02;;
51800;SDS011;37855;53.204;6.568;2023-09-12T13:00:08;23.38;;;14.98;;
51800;SDS011;37855;53.204;6.568;2023-09-12T13:02:38;19.05;;;12.23;;
51800;SDS011;37855;53.204;6.568;2023-09-12T13:05:07;20.85;;;11.77;;
51800;SDS011;37855;53.204;6.568;2023-09-12T13:07:51;17.90;;;10.70;;
51800;SDS011;37855;53.204;6.568;2023-09-12T13:10:17;17.95;;;10.95;;
51800;SDS011;37855;53.204;6.568;2023-09-12T13:12:44;18.90;;;11.63;;
51800;SDS011;37855;53.204;6.568;2023-09-12T13:15:11;18.80;;;11.02;;
51800;SDS011;37855;53.204;6.568;2023-09-12T13:17:37;18.73;;;11.35;;
51800;SDS011;37855;53.204;6.568;2023-09-12T13:20:03;16.63;;;11.57;;
51800;SDS011;37855;53.204;6.568;2023-09-12T13:22:32;17.83;;;10.57;;
51800;SDS011;37855;53.204;6.568;2023-09-12T13:25:01;18.98;;;11.18;;
51800;SDS011;37855;53.204;6.568;2023-09-12T13:27:27;16.10;;;10.50;;
51800;SDS011;37855;53.204;6.568;2023-09-12T13:29:54;15.70;;;11.10;;
51800;SDS011;37855;53.204;6.568;2023-09-12T13:32:20;19.20;;;12.00;;
51800;SDS011;37855;53.204;6.568;2023-09-12T13:34:46;18.77;;;11.50;;
51800;SDS011;37855;53.204;6.568;2023-09-12T13:37:14;14.80;;;9.70;;
51800;SDS011;37855;53.204;6.568;2023-09-12T13:39:43;14.07;;;9.30;;
51800;SDS011;37855;53.204;6.568;2023-09-12T13:42:15;16.23;;;8.85;;
51800;SDS011;37855;53.204;6.568;2023-09-12T13:44:47;13.55;;;8.75;;
51800;SDS011;37855;53.204;6.568;2023-09-12T13:47:13;16.08;;;9.52;;
51800;SDS011;37855;53.204;6.568;2023-09-12T13:49:46;14.85;;;9.48;;
51800;SDS011;37855;53.204;6.568;2023-09-12T13:52:11;13.90;;;9.93;;
51800;SDS011;37855;53.204;6.568;2023-09-12T13:54:37;16.53;;;9.43;;
51800;SDS011;37855;53.204;6.568;2023-09-12T13:57:03;14.45;;;8.65;;
51800;SDS011;37855;53.204;6.568;2023-09-12T13:59:29;13.95;;;8.10;;
51800;SDS011;37855;53.204;6.568;2023-09-12T14:01:56;15.90;;;8.90;;
51800;SDS011;37855;53.204;6.568;2023-09-12T14:04:22;15.77;;;8.52;;
51800;SDS011;37855;53.204;6.568;2023-09-12T14:06:47;15.30;;;8.47;;
51800;SDS011;37855;53.204;6.568;2023-09-12T14:09:13;15.15;;;7.60;;
51800;SDS011;37855;53.204;6.568;2023-09-12T14:11:40;14.32;;;8.13;;
51800;SDS011;37855;53.204;6.568;2023-09-12T14:14:06;11.40;;;7.67;;
51800;SDS011;37855;53.204;6.568;2023-09-12T14:16:32;13.20;;;7.68;;
51800;SDS011;37855;53.204;6.568;2023-09-12T14:18:58;12.20;;;7.07;;
51800;SDS011;37855;53.204;6.568;2023-09-12T14:21:24;12.82;;;7.20;;
51800;SDS011;37855;53.204;6.568;2023-09-12T14:23:50;14.70;;;8.03;;
51800;SDS011;37855;53.204;6.568;2023-09-12T14:26:20;12.98;;;8.75;;
51800;SDS011;37855;53.204;6.568;2023-09-12T14:28:48;14.30;;;8.10;;
51800;SDS011;37855;53.204;6.568;2023-09-12T14:31:15;12.35;;;6.70;;
51800;SDS011;37855;53.204;6.568;2023-09-12T14:33:42;10.10;;;6.10;;
51800;SDS011;37855;53.204;6.568;2023-09-12T14:36:19;13.07;;;7.40;;
51800;SDS011;37855;53.204;6.568;2023-09-12T14:38:44;11.30;;;7.15;;
51800;SDS011;37855;53.204;6.568;2023-09-12T14:41:12;15.52;;;7.20;;
51800;SDS011;37855;53.204;6.568;2023-09-12T14:43:43;11.05;;;7.30;;
51800;SDS011;37855;53.204;6.568;2023-09-12T14:46:09;10.70;;;6.90;;
51800;SDS011;37855;53.204;6.568;2023-09-12T14:48:35;13.23;;;7.75;;
51800;SDS011;37855;53.204;6.568;2023-09-12T14:51:01;15.73;;;8.65;;
51800;SDS011;37855;53.204;6.568;2023-09-12T14:53:27;12.30;;;7.95;;
51800;SDS011;37855;53.204;6.568;2023-09-12T14:55:53;14.97;;;7.97;;
51800;SDS011;37855;53.204;6.568;2023-09-12T14:58:19;13.68;;;7.63;;